sensor_id;sensor_type;location;lat;lon;timestamp;temperature;humidity
17954;DHT22;9102;53.548;9.926;2023-06-10T00:00:08;15.50;99.90
17954;DHT22;9102;53.548;9.926;2023-06-10T00:02:38;15.50;99.90
17954;DHT22;9102;53.548;9.926;2023-06-10T00:05:05;15.50;99.90
17954;DHT22;9102;53.548;9.926;2023-06-10T00:07:33;15.40;99.90
17954;DHT22;9102;53.548;9.926;2023-06-10T00:10:05;15.40;99.90
17954;DHT22;9102;53.548;9.926;2023-06-10T00:12:32;15.40;99.90
17954;DHT22;9102;53.548;9.926;2023-06-10T00:15:04;15.40;99.90
17954;DHT22;9102;53.548;9.926;2023-06-10T00:17:31;15.40;99.90
17954;DHT22;9102;53.548;9.926;2023-06-10T00:19:58;15.40;99.90
17954;DHT22;9102;53.548;9.926;2023-06-10T00:22:25;15.40;99.90
17954;DHT22;9102;53.548;9.926;2023-06-10T00:24:55;15.30;99.90
17954;DHT22;9102;53.548;9.926;2023-06-10T00:27:24;15.30;99.90
17954;DHT22;9102;53.548;9.926;2023-06-10T00:29:56;15.30;99.90
17954;DHT22;9102;53.548;9.926;2023-06-10T00:32:23;15.20;99.90
17954;DHT22;9102;53.548;9.926;2023-06-10T00:34:50;15.30;99.90
17954;DHT22;9102;53.548;9.926;2023-06-10T00:37:17;15.20;99.90
17954;DHT22;9102;53.548;9.926;2023-06-10T00:39:43;15.10;99.90
17954;DHT22;9102;53.548;9.926;2023-06-10T00:42:10;15.10;99.90
17954;DHT22;9102;53.548;9.926;2023-06-10T00:44:39;15.20;99.90
17954;DHT22;9102;53.548;9.926;2023-06-10T00:47:06;15.00;99.90
17954;DHT22;9102;53.548;9.926;2023-06-10T00:49:34;14.90;99.90
17954;DHT22;9102;53.548;9.926;2023-06-10T00:52:02;15.00;99.90
17954;DHT22;9102;53.548;9.926;2023-06-10T00:54:30;14.90;99.90
17954;DHT22;9102;53.548;9.926;2023-06-10T00:57:01;14.80;99.90
17954;DHT22;9102;53.548;9.926;2023-06-10T00:59:28;14.70;99.90
17954;DHT22;9102;53.548;9.926;2023-06-10T01:01:57;14.70;99.90
17954;DHT22;9102;53.548;9.926;2023-06-10T01:04:24;14.70;99.90
17954;DHT22;9102;53.548;9.926;2023-06-10T01:07:07;14.60;99.90
17954;DHT22;9102;53.548;9.926;2023-06-10T01:09:42;14.70;99.90
17954;DHT22;9102;53.548;9.926;2023-06-10T01:12:14;14.70;99.90
17954;DHT22;9102;53.548;9.926;2023-06-10T01:14:43;14.70;99.90
17954;DHT22;9102;53.548;9.926;2023-06-10T01:17:12;14.60;99.90
17954;DHT22;9102;53.548;9.926;2023-06-10T01:19:42;14.60;99.90
17954;DHT22;9102;53.548;9.926;2023-06-10T01:22:10;14.60;99.90
17954;DHT22;9102;53.548;9.926;2023-06-10T01:24:41;14.60;99.90
17954;DHT22;9102;53.548;9.926;2023-06-10T01:27:15;14.50;99.90
17954;DHT22;9102;53.548;9.926;2023-06-10T01:29:52;14.50;99.90
17954;DHT22;9102;53.548;9.926;2023-06-10T01:32:26;14.50;99.90
17954;DHT22;9102;53.548;9.926;2023-06-10T01:34:56;14.50;99.90
17954;DHT22;9102;53.548;9.926;2023-06-10T01:37:26;14.50;99.90
17954;DHT22;9102;53.548;9.926;2023-06-10T01:39:55;14.50;99.90
17954;DHT22;9102;53.548;9.926;2023-06-10T01:42:23;14.50;99.90
17954;DHT22;9102;53.548;9.926;2023-06-10T01:44:51;14.50;99.90
17954;DHT22;9102;53.548;9.926;2023-06-10T01:47:18;14.50;99.90
17954;DHT22;9102;53.548;9.926;2023-06-10T01:49:45;14.50;99.90
17954;DHT22;9102;53.548;9.926;2023-06-10T01:52:12;14.40;99.90
17954;DHT22;9102;53.548;9.926;2023-06-10T01:54:40;14.30;99.90
17954;DHT22;9102;53.548;9.926;2023-06-10T01:57:07;14.30;99.90
17954;DHT22;9102;53.548;9.926;2023-06-10T01:59:34;14.20;99.90
17954;DHT22;9102;53.548;9.926;2023-06-10T02:02:02;14.30;99.90
17954;DHT22;9102;53.548;9.926;2023-06-10T02:04:28;14.20;99.90
17954;DHT22;9102;53.548;9.926;2023-06-10T02:06:55;14.20;99.90
17954;DHT22;9102;53.548;9.926;2023-06-10T02:09:22;14.20;99.90
17954;DHT22;9102;53.548;9.926;2023-06-10T02:11:51;14.20;99.90
17954;DHT22;9102;53.548;9.926;2023-06-10T02:14:18;14.20;99.90
17954;DHT22;9102;53.548;9.926;2023-06-10T02:16:45;14.10;99.90
17954;DHT22;9102;53.548;9.926;2023-06-10T02:19:12;14.10;99.90
17954;DHT22;9102;53.548;9.926;2023-06-10T02:21:42;14.20;99.90
17954;DHT22;9102;53.548;9.926;2023-06-10T02:24:09;14.20;99.90
17954;DHT22;9102;53.548;9.926;2023-06-10T02:26:36;14.10;99.90
17954;DHT22;9102;53.548;9.926;2023-06-10T02:29:04;14.10;99.90
17954;DHT22;9102;53.548;9.926;2023-06-10T02:31:31;14.00;99.90
17954;DHT22;9102;53.548;9.926;2023-06-10T02:34:01;14.00;99.90
17954;DHT22;9102;53.548;9.926;2023-06-10T02:36:28;14.00;99.90
17954;DHT22;9102;53.548;9.926;2023-06-10T02:38:55;14.10;99.90
17954;DHT22;9102;53.548;9.926;2023-06-10T02:41:22;14.00;99.90
17954;DHT22;9102;53.548;9.926;2023-06-10T02:43:50;14.00;99.90
17954;DHT22;9102;53.548;9.926;2023-06-10T02:46:19;14.00;99.90
17954;DHT22;9102;53.548;9.926;2023-06-10T02:48:45;14.00;99.90
17954;DHT22;9102;53.548;9.926;2023-06-10T02:51:14;14.00;99.90
17954;DHT22;9102;53.548;9.926;2023-06-10T02:53:41;14.00;99.90
17954;DHT22;9102;53.548;9.926;2023-06-10T02:56:08;14.00;99.90
17954;DHT22;9102;53.548;9.926;2023-06-10T02:58:35;14.00;99.90
17954;DHT22;9102;53.548;9.926;2023-06-10T03:01:02;14.00;99.90
17954;DHT22;9102;53.548;9.926;2023-06-10T03:06:52;14.00;99.90
17954;DHT22;9102;53.548;9.926;2023-06-10T03:09:19;14.00;99.90
17954;DHT22;9102;53.548;9.926;2023-06-10T03:11:46;14.00;99.90
17954;DHT22;9102;53.548;9.926;2023-06-10T03:14:13;14.00;99.90
17954;DHT22;9102;53.548;9.926;2023-06-10T03:16:39;14.00;99.90
17954;DHT22;9102;53.548;9.926;2023-06-10T03:19:08;14.00;99.90
17954;DHT22;9102;53.548;9.926;2023-06-10T03:21:35;14.00;99.90
17954;DHT22;9102;53.548;9.926;2023-06-10T03:24:05;14.10;99.90
17954;DHT22;9102;53.548;9.926;2023-06-10T03:26:32;14.00;99.90
17954;DHT22;9102;53.548;9.926;2023-06-10T03:28:59;14.00;99.90
17954;DHT22;9102;53.548;9.926;2023-06-10T03:31:25;14.10;99.90
17954;DHT22;9102;53.548;9.926;2023-06-10T03:33:52;14.00;99.90
17954;DHT22;9102;53.548;9.926;2023-06-10T03:36:19;14.00;99.90
17954;DHT22;9102;53.548;9.926;2023-06-10T03:38:46;14.00;99.90
17954;DHT22;9102;53.548;9.926;2023-06-10T03:41:14;14.10;99.90
17954;DHT22;9102;53.548;9.926;2023-06-10T03:43:41;14.10;99.90
17954;DHT22;9102;53.548;9.926;2023-06-10T03:46:10;14.00;99.90
17954;DHT22;9102;53.548;9.926;2023-06-10T03:48:37;14.00;99.90
17954;DHT22;9102;53.548;9.926;2023-06-10T03:51:04;14.10;99.90
17954;DHT22;9102;53.548;9.926;2023-06-10T03:53:31;14.10;99.90
17954;DHT22;9102;53.548;9.926;2023-06-10T03:55:57;14.10;99.90
17954;DHT22;9102;53.548;9.926;2023-06-10T03:58:26;14.10;99.90
17954;DHT22;9102;53.548;9.926;2023-06-10T04:00:53;14.20;99.90
17954;DHT22;9102;53.548;9.926;2023-06-10T04:03:21;14.10;99.90
17954;DHT22;9102;53.548;9.926;2023-06-10T04:05:49;14.20;99.90
17954;DHT22;9102;53.548;9.926;2023-06-10T04:08:16;14.10;99.90
17954;DHT22;9102;53.548;9.926;2023-06-10T04:10:43;14.20;99.90
17954;DHT22;9102;53.548;9.926;2023-06-10T04:13:10;14.20;99.90
17954;DHT22;9102;53.548;9.926;2023-06-10T04:15:38;14.30;99.90
17954;DHT22;9102;53.548;9.926;2023-06-10T04:18:06;14.30;99.90
17954;DHT22;9102;53.548;9.926;2023-06-10T04:20:33;14.20;99.90
17954;DHT22;9102;53.548;9.926;2023-06-10T04:23:00;14.40;99.90
17954;DHT22;9102;53.548;9.926;2023-06-10T04:25:27;14.40;99.90
17954;DHT22;9102;53.548;9.926;2023-06-10T04:27:54;14.40;99.90
17954;DHT22;9102;53.548;9.926;2023-06-10T04:30:21;14.40;99.90
17954;DHT22;9102;53.548;9.926;2023-06-10T04:32:49;14.40;99.90
17954;DHT22;9102;53.548;9.926;2023-06-10T04:35:17;14.50;99.90
17954;DHT22;9102;53.548;9.926;2023-06-10T04:37:44;14.60;99.90
17954;DHT22;9102;53.548;9.926;2023-06-10T04:40:11;14.70;99.90
17954;DHT22;9102;53.548;9.926;2023-06-10T04:42:38;14.90;99.90
17954;DHT22;9102;53.548;9.926;2023-06-10T04:45:06;15.00;99.90
17954;DHT22;9102;53.548;9.926;2023-06-10T04:47:33;15.10;99.90
17954;DHT22;9102;53.548;9.926;2023-06-10T04:50:01;15.30;99.90
17954;DHT22;9102;53.548;9.926;2023-06-10T04:52:28;15.30;99.90
17954;DHT22;9102;53.548;9.926;2023-06-10T04:54:57;15.40;99.90
17954;DHT22;9102;53.548;9.926;2023-06-10T04:57:24;15.50;99.90
17954;DHT22;9102;53.548;9.926;2023-06-10T04:59:51;15.90;99.90
17954;DHT22;9102;53.548;9.926;2023-06-10T05:02:18;16.10;99.90
17954;DHT22;9102;53.548;9.926;2023-06-10T05:04:45;16.60;99.90
17954;DHT22;9102;53.548;9.926;2023-06-10T05:07:13;16.80;99.90
17954;DHT22;9102;53.548;9.926;2023-06-10T05:09:40;17.00;99.90
17954;DHT22;9102;53.548;9.926;2023-06-10T05:12:08;17.20;99.90
17954;DHT22;9102;53.548;9.926;2023-06-10T05:14:35;16.90;99.90
17954;DHT22;9102;53.548;9.926;2023-06-10T05:17:03;16.70;99.90
17954;DHT22;9102;53.548;9.926;2023-06-10T05:19:31;16.50;99.90
17954;DHT22;9102;53.548;9.926;2023-06-10T05:21:58;16.30;99.90
17954;DHT22;9102;53.548;9.926;2023-06-10T05:24:26;16.30;99.90
17954;DHT22;9102;53.548;9.926;2023-06-10T05:26:53;16.30;99.90
17954;DHT22;9102;53.548;9.926;2023-06-10T05:29:20;16.20;99.90
17954;DHT22;9102;53.548;9.926;2023-06-10T05:31:47;16.20;99.90
17954;DHT22;9102;53.548;9.926;2023-06-10T05:34:13;16.20;99.90
17954;DHT22;9102;53.548;9.926;2023-06-10T05:36:40;16.20;99.90
17954;DHT22;9102;53.548;9.926;2023-06-10T05:39:07;16.10;99.90
17954;DHT22;9102;53.548;9.926;2023-06-10T05:41:35;16.20;99.90
17954;DHT22;9102;53.548;9.926;2023-06-10T05:44:05;16.30;99.90
17954;DHT22;9102;53.548;9.926;2023-06-10T05:46:32;16.30;99.90
17954;DHT22;9102;53.548;9.926;2023-06-10T05:48:59;16.30;99.90
17954;DHT22;9102;53.548;9.926;2023-06-10T05:51:26;16.30;99.90
17954;DHT22;9102;53.548;9.926;2023-06-10T05:53:54;16.40;99.90
17954;DHT22;9102;53.548;9.926;2023-06-10T05:56:21;16.40;99.90
17954;DHT22;9102;53.548;9.926;2023-06-10T05:58:52;16.40;99.90
17954;DHT22;9102;53.548;9.926;2023-06-10T06:01:19;16.40;99.90
17954;DHT22;9102;53.548;9.926;2023-06-10T06:03:46;16.40;99.90
17954;DHT22;9102;53.548;9.926;2023-06-10T06:06:13;16.40;99.90
17954;DHT22;9102;53.548;9.926;2023-06-10T06:08:40;16.50;99.90
17954;DHT22;9102;53.548;9.926;2023-06-10T06:11:06;16.60;99.90
17954;DHT22;9102;53.548;9.926;2023-06-10T06:13:33;16.60;99.90
17954;DHT22;9102;53.548;9.926;2023-06-10T06:16:02;16.80;99.90
17954;DHT22;9102;53.548;9.926;2023-06-10T06:18:28;16.80;99.90
17954;DHT22;9102;53.548;9.926;2023-06-10T06:20:55;16.80;99.90
17954;DHT22;9102;53.548;9.926;2023-06-10T06:23:22;16.90;99.90
17954;DHT22;9102;53.548;9.926;2023-06-10T06:25:50;17.00;99.90
17954;DHT22;9102;53.548;9.926;2023-06-10T06:28:17;16.90;99.90
17954;DHT22;9102;53.548;9.926;2023-06-10T06:30:46;16.90;99.90
17954;DHT22;9102;53.548;9.926;2023-06-10T06:33:14;17.00;99.90
17954;DHT22;9102;53.548;9.926;2023-06-10T06:35:41;17.10;99.90
17954;DHT22;9102;53.548;9.926;2023-06-10T06:38:08;17.00;99.90
17954;DHT22;9102;53.548;9.926;2023-06-10T06:40:35;17.10;99.90
17954;DHT22;9102;53.548;9.926;2023-06-10T06:43:02;17.10;99.90
17954;DHT22;9102;53.548;9.926;2023-06-10T06:45:29;17.20;99.90
17954;DHT22;9102;53.548;9.926;2023-06-10T06:47:56;17.20;99.90
17954;DHT22;9102;53.548;9.926;2023-06-10T06:50:24;17.20;99.90
17954;DHT22;9102;53.548;9.926;2023-06-10T06:52:51;17.20;99.90
17954;DHT22;9102;53.548;9.926;2023-06-10T06:55:18;17.30;99.90
17954;DHT22;9102;53.548;9.926;2023-06-10T06:57:44;17.30;99.90
17954;DHT22;9102;53.548;9.926;2023-06-10T07:00:12;17.40;99.90
17954;DHT22;9102;53.548;9.926;2023-06-10T07:02:39;17.50;99.90
17954;DHT22;9102;53.548;9.926;2023-06-10T07:05:07;17.40;99.90
17954;DHT22;9102;53.548;9.926;2023-06-10T07:07:37;17.50;99.90
17954;DHT22;9102;53.548;9.926;2023-06-10T07:10:08;17.60;99.90
17954;DHT22;9102;53.548;9.926;2023-06-10T07:12:35;17.60;99.90
17954;DHT22;9102;53.548;9.926;2023-06-10T07:15:02;17.70;99.90
17954;DHT22;9102;53.548;9.926;2023-06-10T07:17:29;17.80;99.90
17954;DHT22;9102;53.548;9.926;2023-06-10T07:19:56;17.80;99.90
17954;DHT22;9102;53.548;9.926;2023-06-10T07:22:25;17.80;99.90
17954;DHT22;9102;53.548;9.926;2023-06-10T07:24:53;17.80;99.90
17954;DHT22;9102;53.548;9.926;2023-06-10T07:27:21;17.80;99.90
17954;DHT22;9102;53.548;9.926;2023-06-10T07:29:47;18.00;99.90
17954;DHT22;9102;53.548;9.926;2023-06-10T07:32:14;18.00;99.90
17954;DHT22;9102;53.548;9.926;2023-06-10T07:34:41;18.10;99.90
17954;DHT22;9102;53.548;9.926;2023-06-10T07:37:08;18.20;99.90
17954;DHT22;9102;53.548;9.926;2023-06-10T07:39:35;18.20;99.90
17954;DHT22;9102;53.548;9.926;2023-06-10T07:42:04;18.20;99.90
17954;DHT22;9102;53.548;9.926;2023-06-10T07:44:31;18.10;99.90
17954;DHT22;9102;53.548;9.926;2023-06-10T07:46:58;18.10;99.90
17954;DHT22;9102;53.548;9.926;2023-06-10T07:49:25;18.10;99.90
17954;DHT22;9102;53.548;9.926;2023-06-10T07:51:54;18.20;99.90
17954;DHT22;9102;53.548;9.926;2023-06-10T07:54:21;18.20;99.90
17954;DHT22;9102;53.548;9.926;2023-06-10T07:56:48;18.50;99.90
17954;DHT22;9102;53.548;9.926;2023-06-10T07:59:18;18.50;99.90
17954;DHT22;9102;53.548;9.926;2023-06-10T08:01:45;18.60;99.90
17954;DHT22;9102;53.548;9.926;2023-06-10T08:04:12;18.70;99.90
17954;DHT22;9102;53.548;9.926;2023-06-10T08:06:39;18.70;99.90
17954;DHT22;9102;53.548;9.926;2023-06-10T08:09:06;18.80;99.90
17954;DHT22;9102;53.548;9.926;2023-06-10T08:11:35;18.90;99.90
17954;DHT22;9102;53.548;9.926;2023-06-10T08:14:02;19.00;99.90
17954;DHT22;9102;53.548;9.926;2023-06-10T08:16:30;19.10;99.90
17954;DHT22;9102;53.548;9.926;2023-06-10T08:18:58;19.30;99.90
17954;DHT22;9102;53.548;9.926;2023-06-10T08:21:25;19.10;99.90
17954;DHT22;9102;53.548;9.926;2023-06-10T08:23:53;19.10;99.90
17954;DHT22;9102;53.548;9.926;2023-06-10T08:26:21;19.30;99.90
17954;DHT22;9102;53.548;9.926;2023-06-10T08:28:47;19.30;99.90
17954;DHT22;9102;53.548;9.926;2023-06-10T08:31:17;19.40;99.90
17954;DHT22;9102;53.548;9.926;2023-06-10T08:33:50;19.40;99.90
17954;DHT22;9102;53.548;9.926;2023-06-10T08:36:19;19.60;99.90
17954;DHT22;9102;53.548;9.926;2023-06-10T08:38:46;19.70;99.90
17954;DHT22;9102;53.548;9.926;2023-06-10T08:41:16;19.60;99.90
17954;DHT22;9102;53.548;9.926;2023-06-10T08:43:51;19.70;99.90
17954;DHT22;9102;53.548;9.926;2023-06-10T08:46:21;19.80;99.90
17954;DHT22;9102;53.548;9.926;2023-06-10T08:48:55;20.00;99.90
17954;DHT22;9102;53.548;9.926;2023-06-10T08:51:24;20.00;99.90
17954;DHT22;9102;53.548;9.926;2023-06-10T08:54:01;20.10;99.90
17954;DHT22;9102;53.548;9.926;2023-06-10T08:56:28;20.20;99.90
17954;DHT22;9102;53.548;9.926;2023-06-10T08:58:59;20.20;99.90
17954;DHT22;9102;53.548;9.926;2023-06-10T09:01:26;20.30;99.90
17954;DHT22;9102;53.548;9.926;2023-06-10T09:03:56;20.40;99.90
17954;DHT22;9102;53.548;9.926;2023-06-10T09:06:25;20.40;99.90
17954;DHT22;9102;53.548;9.926;2023-06-10T09:08:52;20.60;99.90
17954;DHT22;9102;53.548;9.926;2023-06-10T09:11:19;20.70;99.90
17954;DHT22;9102;53.548;9.926;2023-06-10T09:13:45;20.70;99.90
17954;DHT22;9102;53.548;9.926;2023-06-10T09:16:12;20.80;99.90
17954;DHT22;9102;53.548;9.926;2023-06-10T09:18:39;20.80;99.90
17954;DHT22;9102;53.548;9.926;2023-06-10T09:21:07;20.90;99.90
17954;DHT22;9102;53.548;9.926;2023-06-10T09:23:36;21.00;99.90
17954;DHT22;9102;53.548;9.926;2023-06-10T09:26:08;21.10;99.90
17954;DHT22;9102;53.548;9.926;2023-06-10T09:28:36;21.20;99.90
17954;DHT22;9102;53.548;9.926;2023-06-10T09:31:05;21.20;99.90
17954;DHT22;9102;53.548;9.926;2023-06-10T09:33:32;21.20;99.90
17954;DHT22;9102;53.548;9.926;2023-06-10T09:36:01;21.30;99.90
17954;DHT22;9102;53.548;9.926;2023-06-10T09:38:34;21.30;99.90
17954;DHT22;9102;53.548;9.926;2023-06-10T09:41:04;21.40;99.90
17954;DHT22;9102;53.548;9.926;2023-06-10T09:43:39;21.40;99.90
17954;DHT22;9102;53.548;9.926;2023-06-10T09:46:07;21.40;99.90
17954;DHT22;9102;53.548;9.926;2023-06-10T09:48:41;21.50;99.90
17954;DHT22;9102;53.548;9.926;2023-06-10T09:51:09;21.60;99.90
17954;DHT22;9102;53.548;9.926;2023-06-10T09:53:37;21.70;99.90
17954;DHT22;9102;53.548;9.926;2023-06-10T09:56:05;21.80;99.90
17954;DHT22;9102;53.548;9.926;2023-06-10T09:58:36;21.90;99.90
17954;DHT22;9102;53.548;9.926;2023-06-10T10:01:09;21.90;99.90
17954;DHT22;9102;53.548;9.926;2023-06-10T10:03:46;22.00;99.90
17954;DHT22;9102;53.548;9.926;2023-06-10T10:06:14;22.10;99.90
17954;DHT22;9102;53.548;9.926;2023-06-10T10:08:43;22.10;99.90
17954;DHT22;9102;53.548;9.926;2023-06-10T10:11:14;22.10;99.90
17954;DHT22;9102;53.548;9.926;2023-06-10T10:13:45;22.10;99.90
17954;DHT22;9102;53.548;9.926;2023-06-10T10:16:17;22.10;99.90
17954;DHT22;9102;53.548;9.926;2023-06-10T10:18:51;22.30;99.90
17954;DHT22;9102;53.548;9.926;2023-06-10T10:21:22;22.60;99.90
17954;DHT22;9102;53.548;9.926;2023-06-10T10:23:53;22.70;99.90
17954;DHT22;9102;53.548;9.926;2023-06-10T10:26:26;22.90;99.90
17954;DHT22;9102;53.548;9.926;2023-06-10T10:28:58;23.00;99.90
17954;DHT22;9102;53.548;9.926;2023-06-10T10:31:29;23.10;99.90
17954;DHT22;9102;53.548;9.926;2023-06-10T10:33:59;23.10;99.90
17954;DHT22;9102;53.548;9.926;2023-06-10T10:36:27;23.20;99.90
17954;DHT22;9102;53.548;9.926;2023-06-10T10:38:57;23.20;99.90
17954;DHT22;9102;53.548;9.926;2023-06-10T10:41:28;23.30;99.90
17954;DHT22;9102;53.548;9.926;2023-06-10T10:43:59;23.30;99.90
17954;DHT22;9102;53.548;9.926;2023-06-10T10:46:28;23.40;99.90
17954;DHT22;9102;53.548;9.926;2023-06-10T10:48:56;23.40;99.90
17954;DHT22;9102;53.548;9.926;2023-06-10T10:51:24;23.60;99.90
17954;DHT22;9102;53.548;9.926;2023-06-10T10:54:14;23.60;99.90
17954;DHT22;9102;53.548;9.926;2023-06-10T10:57:14;23.80;99.90
17954;DHT22;9102;53.548;9.926;2023-06-10T10:59:46;23.90;99.90
17954;DHT22;9102;53.548;9.926;2023-06-10T11:02:18;24.10;99.90
17954;DHT22;9102;53.548;9.926;2023-06-10T11:04:48;24.20;99.90
17954;DHT22;9102;53.548;9.926;2023-06-10T11:07:20;24.20;99.90
17954;DHT22;9102;53.548;9.926;2023-06-10T11:10:02;24.20;99.90
17954;DHT22;9102;53.548;9.926;2023-06-10T11:12:50;24.20;99.90
17954;DHT22;9102;53.548;9.926;2023-06-10T11:15:23;24.10;99.90
17954;DHT22;9102;53.548;9.926;2023-06-10T11:18:20;24.10;99.90
17954;DHT22;9102;53.548;9.926;2023-06-10T11:20:59;24.20;99.90
17954;DHT22;9102;53.548;9.926;2023-06-10T11:23:41;24.40;99.90
17954;DHT22;9102;53.548;9.926;2023-06-10T11:26:22;24.50;99.90
17954;DHT22;9102;53.548;9.926;2023-06-10T11:29:07;24.60;99.90
17954;DHT22;9102;53.548;9.926;2023-06-10T11:31:45;24.60;99.90
17954;DHT22;9102;53.548;9.926;2023-06-10T11:34:13;24.60;99.90
17954;DHT22;9102;53.548;9.926;2023-06-10T11:36:41;24.50;99.90
17954;DHT22;9102;53.548;9.926;2023-06-10T11:39:11;24.50;99.90
17954;DHT22;9102;53.548;9.926;2023-06-10T11:41:40;24.60;99.90
17954;DHT22;9102;53.548;9.926;2023-06-10T11:44:08;24.70;99.90
17954;DHT22;9102;53.548;9.926;2023-06-10T11:46:36;24.70;99.90
17954;DHT22;9102;53.548;9.926;2023-06-10T11:49:04;24.60;99.90
17954;DHT22;9102;53.548;9.926;2023-06-10T11:51:33;24.70;99.90
17954;DHT22;9102;53.548;9.926;2023-06-10T11:54:03;24.70;99.90
17954;DHT22;9102;53.548;9.926;2023-06-10T11:56:31;24.90;99.90
17954;DHT22;9102;53.548;9.926;2023-06-10T11:59:00;25.00;99.90
17954;DHT22;9102;53.548;9.926;2023-06-10T12:01:30;25.00;99.90
17954;DHT22;9102;53.548;9.926;2023-06-10T12:03:58;25.00;99.90
17954;DHT22;9102;53.548;9.926;2023-06-10T12:06:25;25.10;99.90
17954;DHT22;9102;53.548;9.926;2023-06-10T12:08:56;25.00;99.90
17954;DHT22;9102;53.548;9.926;2023-06-10T12:11:23;25.00;99.90
17954;DHT22;9102;53.548;9.926;2023-06-10T12:13:50;25.00;99.90
17954;DHT22;9102;53.548;9.926;2023-06-10T12:16:18;25.00;99.90
17954;DHT22;9102;53.548;9.926;2023-06-10T12:18:46;25.00;99.90
17954;DHT22;9102;53.548;9.926;2023-06-10T12:21:23;25.10;99.90
17954;DHT22;9102;53.548;9.926;2023-06-10T12:24:10;25.20;99.90
17954;DHT22;9102;53.548;9.926;2023-06-10T12:26:41;25.20;99.90
17954;DHT22;9102;53.548;9.926;2023-06-10T12:29:16;25.00;99.90
17954;DHT22;9102;53.548;9.926;2023-06-10T12:31:59;25.00;99.90
17954;DHT22;9102;53.548;9.926;2023-06-10T12:34:36;25.20;99.90
17954;DHT22;9102;53.548;9.926;2023-06-10T12:37:05;25.30;99.90
17954;DHT22;9102;53.548;9.926;2023-06-10T12:39:32;25.40;99.90
17954;DHT22;9102;53.548;9.926;2023-06-10T12:42:00;25.40;99.90
17954;DHT22;9102;53.548;9.926;2023-06-10T12:44:30;25.40;99.90
17954;DHT22;9102;53.548;9.926;2023-06-10T12:47:07;25.50;99.90
17954;DHT22;9102;53.548;9.926;2023-06-10T12:49:35;25.50;99.90
17954;DHT22;9102;53.548;9.926;2023-06-10T12:52:03;25.50;99.90
17954;DHT22;9102;53.548;9.926;2023-06-10T12:54:30;25.60;99.90
17954;DHT22;9102;53.548;9.926;2023-06-10T12:56:57;25.70;99.90
17954;DHT22;9102;53.548;9.926;2023-06-10T12:59:32;25.90;99.90
17954;DHT22;9102;53.548;9.926;2023-06-10T13:02:00;25.90;99.90
17954;DHT22;9102;53.548;9.926;2023-06-10T13:04:31;26.00;99.90
17954;DHT22;9102;53.548;9.926;2023-06-10T13:07:00;26.00;99.90
17954;DHT22;9102;53.548;9.926;2023-06-10T13:09:27;26.00;99.90
17954;DHT22;9102;53.548;9.926;2023-06-10T13:11:54;26.00;99.90
17954;DHT22;9102;53.548;9.926;2023-06-10T13:14:22;26.10;99.90
17954;DHT22;9102;53.548;9.926;2023-06-10T13:16:55;26.10;99.90
17954;DHT22;9102;53.548;9.926;2023-06-10T13:19:28;26.10;99.90
17954;DHT22;9102;53.548;9.926;2023-06-10T13:21:57;26.10;99.90
17954;DHT22;9102;53.548;9.926;2023-06-10T13:24:24;26.20;99.90
17954;DHT22;9102;53.548;9.926;2023-06-10T13:26:51;26.20;99.90
17954;DHT22;9102;53.548;9.926;2023-06-10T13:29:21;26.30;99.90
17954;DHT22;9102;53.548;9.926;2023-06-10T13:31:49;26.40;99.90
17954;DHT22;9102;53.548;9.926;2023-06-10T13:34:17;26.50;99.90
17954;DHT22;9102;53.548;9.926;2023-06-10T13:36:46;26.60;99.90
17954;DHT22;9102;53.548;9.926;2023-06-10T13:39:17;26.70;99.90
17954;DHT22;9102;53.548;9.926;2023-06-10T13:41:45;26.70;99.90
17954;DHT22;9102;53.548;9.926;2023-06-10T13:44:12;26.70;99.90
17954;DHT22;9102;53.548;9.926;2023-06-10T13:46:39;26.70;99.90
17954;DHT22;9102;53.548;9.926;2023-06-10T13:49:06;26.70;99.90
17954;DHT22;9102;53.548;9.926;2023-06-10T13:51:33;26.70;99.90
17954;DHT22;9102;53.548;9.926;2023-06-10T13:54:02;26.70;99.90
17954;DHT22;9102;53.548;9.926;2023-06-10T13:56:30;26.60;99.90
17954;DHT22;9102;53.548;9.926;2023-06-10T13:59:03;26.70;99.90
17954;DHT22;9102;53.548;9.926;2023-06-10T14:01:30;26.70;99.90
17954;DHT22;9102;53.548;9.926;2023-06-10T14:03:57;26.70;99.90
17954;DHT22;9102;53.548;9.926;2023-06-10T14:06:24;26.70;99.90
17954;DHT22;9102;53.548;9.926;2023-06-10T14:08:51;26.80;99.90
17954;DHT22;9102;53.548;9.926;2023-06-10T14:11:21;26.80;99.90
17954;DHT22;9102;53.548;9.926;2023-06-10T14:13:48;26.70;99.90
17954;DHT22;9102;53.548;9.926;2023-06-10T14:16:15;26.50;99.90
17954;DHT22;9102;53.548;9.926;2023-06-10T14:18:42;26.40;99.90
17954;DHT22;9102;53.548;9.926;2023-06-10T14:21:09;26.40;99.90
17954;DHT22;9102;53.548;9.926;2023-06-10T14:23:37;26.40;99.90
17954;DHT22;9102;53.548;9.926;2023-06-10T14:26:08;26.30;99.90
17954;DHT22;9102;53.548;9.926;2023-06-10T14:28:37;26.20;99.90
17954;DHT22;9102;53.548;9.926;2023-06-10T14:31:04;26.10;99.90
17954;DHT22;9102;53.548;9.926;2023-06-10T14:33:31;26.10;99.90
17954;DHT22;9102;53.548;9.926;2023-06-10T14:35:58;26.00;99.90
17954;DHT22;9102;53.548;9.926;2023-06-10T14:38:25;26.00;99.90
17954;DHT22;9102;53.548;9.926;2023-06-10T14:40:52;25.90;99.90
17954;DHT22;9102;53.548;9.926;2023-06-10T14:43:19;25.80;99.90
17954;DHT22;9102;53.548;9.926;2023-06-10T14:45:47;25.80;99.90
17954;DHT22;9102;53.548;9.926;2023-06-10T14:48:16;25.80;99.90
17954;DHT22;9102;53.548;9.926;2023-06-10T14:50:43;25.80;99.90
17954;DHT22;9102;53.548;9.926;2023-06-10T14:53:12;25.90;99.90
17954;DHT22;9102;53.548;9.926;2023-06-10T14:55:39;25.90;99.90
17954;DHT22;9102;53.548;9.926;2023-06-10T14:58:05;25.90;99.90
17954;DHT22;9102;53.548;9.926;2023-06-10T15:00:32;25.90;99.90
17954;DHT22;9102;53.548;9.926;2023-06-10T15:03:01;25.90;99.90
17954;DHT22;9102;53.548;9.926;2023-06-10T15:05:28;25.90;99.90
17954;DHT22;9102;53.548;9.926;2023-06-10T15:07:55;25.80;99.90
17954;DHT22;9102;53.548;9.926;2023-06-10T15:10:23;25.80;99.90
17954;DHT22;9102;53.548;9.926;2023-06-10T15:12:50;25.70;99.90
17954;DHT22;9102;53.548;9.926;2023-06-10T15:15:21;25.60;99.90
17954;DHT22;9102;53.548;9.926;2023-06-10T15:17:48;25.60;99.90
17954;DHT22;9102;53.548;9.926;2023-06-10T15:20:16;25.60;99.90
17954;DHT22;9102;53.548;9.926;2023-06-10T15:22:43;25.60;99.90
17954;DHT22;9102;53.548;9.926;2023-06-10T15:25:10;25.70;99.90
17954;DHT22;9102;53.548;9.926;2023-06-10T15:27:36;25.70;99.90
17954;DHT22;9102;53.548;9.926;2023-06-10T15:30:04;25.70;99.90
17954;DHT22;9102;53.548;9.926;2023-06-10T15:32:31;25.70;99.90
17954;DHT22;9102;53.548;9.926;2023-06-10T15:34:58;25.60;99.90
17954;DHT22;9102;53.548;9.926;2023-06-10T15:37:27;25.40;99.90
17954;DHT22;9102;53.548;9.926;2023-06-10T15:39:53;25.40;99.90
17954;DHT22;9102;53.548;9.926;2023-06-10T15:42:20;25.30;99.90
17954;DHT22;9102;53.548;9.926;2023-06-10T15:44:49;25.30;99.90
17954;DHT22;9102;53.548;9.926;2023-06-10T15:47:18;25.30;99.90
17954;DHT22;9102;53.548;9.926;2023-06-10T15:49:44;25.50;99.90
17954;DHT22;9102;53.548;9.926;2023-06-10T15:52:11;25.50;99.90
17954;DHT22;9102;53.548;9.926;2023-06-10T15:54:40;25.60;99.90
17954;DHT22;9102;53.548;9.926;2023-06-10T15:57:07;25.60;99.90